Time;durP1;ratioP1;P1;durP2;ratioP2;P2;SDS_P1;SDS_P2;PMS_P1;PMS_P2;Temp;Humidity;BMP_temperature;BMP_pressure;BME280_temperature;BME280_humidity;BME280_pressure;Samples;Min_cycle;Max_cycle;Signal;HPM_P1;HPM_P2
2024/02/16 00:00:03;;;;;;;31.20;15.13;;;-0.30;99.90;;;;;;4129171;28;20276;-61
2024/02/16 00:02:04;;;;;;;32.57;14.83;;;-0.30;99.90;;;;;;4128011;28;20268;-63
2024/02/16 00:04:05;;;;;;;31.37;16.33;;;-0.30;99.90;;;;;;4129415;28;20260;-60
2024/02/16 00:06:08;;;;;;;31.67;16.17;;;-0.40;99.90;;;;;;4128310;28;20355;-62
2024/02/16 00:08:10;;;;;;;33.37;16.70;;;-0.30;99.90;;;;;;4128673;28;20750;-64
2024/02/16 00:10:14;;;;;;;33.63;15.77;;;-0.40;99.90;;;;;;4128830;28;20658;-61
2024/02/16 00:12:16;;;;;;;36.50;17.47;;;-0.40;99.90;;;;;;4128411;28;20323;-65
2024/02/16 00:14:17;;;;;;;30.93;16.07;;;-0.40;99.90;;;;;;4128692;28;20715;-58
2024/02/16 00:16:18;;;;;;;33.63;16.80;;;-0.50;99.90;;;;;;4128335;28;20264;-61
2024/02/16 00:18:20;;;;;;;34.03;16.77;;;-0.60;99.90;;;;;;4129203;28;20272;-60
2024/02/16 00:20:22;;;;;;;34.17;16.70;;;-0.70;99.90;;;;;;4128300;28;20338;-65
2024/02/16 00:22:24;;;;;;;36.87;17.13;;;-0.70;99.90;;;;;;4129191;28;20323;-65
2024/02/16 00:24:26;;;;;;;34.80;17.40;;;-0.80;99.90;;;;;;4127750;28;20880;-62
2024/02/16 00:26:27;;;;;;;32.87;17.27;;;-0.80;99.90;;;;;;4128670;28;20338;-60
2024/02/16 00:28:28;;;;;;;37.93;17.57;;;-0.90;99.90;;;;;;4126552;28;20303;-58
2024/02/16 00:30:30;;;;;;;35.20;17.00;;;-0.90;99.90;;;;;;4129006;28;20318;-64
2024/02/16 00:32:31;;;;;;;34.73;17.57;;;-1.00;99.90;;;;;;4127907;28;20345;-58
2024/02/16 00:34:36;;;;;;;33.07;16.50;;;-1.00;99.90;;;;;;4128767;28;20354;-55
2024/02/16 00:36:37;;;;;;;39.20;16.83;;;-1.00;99.90;;;;;;4127641;28;20326;-64
2024/02/16 00:38:38;;;;;;;37.40;16.63;;;-1.00;99.90;;;;;;4127948;28;21015;-63
2024/02/16 00:40:43;;;;;;;33.50;16.27;;;-1.00;99.90;;;;;;4128206;28;20594;-61
2024/02/16 00:42:44;;;;;;;35.87;16.20;;;-1.00;99.90;;;;;;4128349;28;20272;-63
2024/02/16 00:44:45;;;;;;;32.40;16.93;;;-1.00;99.90;;;;;;4128299;28;20268;-61
2024/02/16 00:46:47;;;;;;;33.10;16.03;;;-1.00;99.90;;;;;;4127887;28;20272;-59
2024/02/16 00:48:49;;;;;;;38.80;16.57;;;-1.00;99.90;;;;;;4128563;28;20276;-60
2024/02/16 00:50:50;;;;;;;32.10;16.63;;;-1.00;99.90;;;;;;4128934;28;20248;-62
2024/02/16 00:52:51;;;;;;;30.27;15.57;;;-1.10;99.90;;;;;;4131369;28;20260;-58
2024/02/16 00:54:52;;;;;;;37.50;16.87;;;-1.10;99.90;;;;;;4130277;28;20354;-58
2024/02/16 00:56:54;;;;;;;35.93;17.70;;;-1.10;99.90;;;;;;4131820;28;20275;-59
2024/02/16 00:58:56;;;;;;;32.60;16.33;;;-1.10;99.90;;;;;;4130968;28;21053;-63
2024/02/16 01:00:57;;;;;;;34.40;16.87;;;-1.20;99.90;;;;;;4131895;28;20841;-62
2024/02/16 01:02:58;;;;;;;32.17;17.53;;;-1.20;99.90;;;;;;4131100;28;20756;-62
2024/02/16 01:05:02;;;;;;;31.93;16.83;;;-1.20;99.90;;;;;;4131783;28;21122;-63
2024/02/16 01:07:03;;;;;;;35.33;15.73;;;-1.20;99.90;;;;;;4129650;28;20327;-61
2024/02/16 01:09:04;;;;;;;37.50;15.80;;;-1.30;99.90;;;;;;4131713;28;20269;-63
2024/02/16 01:11:05;;;;;;;44.03;16.57;;;-1.30;99.90;;;;;;4130811;28;20664;-60
2024/02/16 01:13:06;;;;;;;37.97;16.97;;;-1.30;99.90;;;;;;4131376;28;20280;-60
2024/02/16 01:15:08;;;;;;;35.67;16.40;;;-1.30;99.90;;;;;;4131062;28;20304;-64
2024/02/16 01:17:09;;;;;;;37.80;17.07;;;-1.30;99.90;;;;;;4131086;28;20288;-63
2024/02/16 01:19:10;;;;;;;37.73;17.80;;;-1.30;99.90;;;;;;4131559;28;20790;-63
2024/02/16 01:21:12;;;;;;;37.80;17.37;;;-1.30;99.90;;;;;;4130059;28;20673;-60
2024/02/16 01:23:13;;;;;;;30.67;16.43;;;-1.30;99.90;;;;;;4131598;28;20330;-59
2024/02/16 01:25:15;;;;;;;40.90;17.00;;;-1.30;99.90;;;;;;4128964;28;20341;-59
2024/02/16 01:27:16;;;;;;;34.57;17.03;;;-1.30;99.90;;;;;;4131398;28;20684;-59
2024/02/16 01:29:18;;;;;;;36.50;17.33;;;-1.40;99.90;;;;;;4130572;28;20260;-56
2024/02/16 01:31:19;;;;;;;35.23;17.10;;;-1.40;99.90;;;;;;4131615;28;20319;-61
2024/02/16 01:33:21;;;;;;;34.70;17.43;;;-1.40;99.90;;;;;;4130444;28;20346;-61
2024/02/16 01:35:22;;;;;;;39.03;16.93;;;-1.40;99.90;;;;;;4131298;28;20284;-57
2024/02/16 01:37:23;;;;;;;38.63;17.23;;;-1.40;99.90;;;;;;4129968;28;20264;-57
2024/02/16 01:39:25;;;;;;;43.50;16.60;;;-1.40;99.90;;;;;;4130737;28;20284;-61
2024/02/16 01:41:26;;;;;;;28.27;13.77;;;-1.40;99.90;;;;;;4130523;28;20256;-63
2024/02/16 01:43:27;;;;;;;27.50;13.07;;;-1.50;99.90;;;;;;4130589;28;20314;-54
2024/02/16 01:45:28;;;;;;;24.87;12.43;;;-1.50;99.90;;;;;;4130429;28;20256;-60
2024/02/16 01:47:30;;;;;;;22.53;12.57;;;-1.50;99.90;;;;;;4130348;28;20799;-59
2024/02/16 01:49:31;;;;;;;23.37;13.13;;;-1.60;99.90;;;;;;4130864;28;20664;-61
2024/02/16 01:51:33;;;;;;;34.47;14.60;;;-1.60;99.90;;;;;;4130253;28;20288;-56
2024/02/16 01:53:36;;;;;;;36.97;15.93;;;-1.70;99.90;;;;;;4130210;28;20288;-61
2024/02/16 01:55:38;;;;;;;32.07;15.90;;;-1.80;99.90;;;;;;4129924;28;20256;-63
2024/02/16 01:57:40;;;;;;;32.73;14.37;;;-1.80;99.90;;;;;;4130259;28;20296;-54
2024/02/16 01:59:43;;;;;;;31.77;15.10;;;-1.80;99.90;;;;;;4128310;28;20276;-58
2024/02/16 02:01:44;;;;;;;28.90;14.33;;;-1.80;99.90;;;;;;4129552;28;20260;-62
2024/02/16 02:03:45;;;;;;;30.03;14.13;;;-1.80;99.90;;;;;;4129732;28;20361;-60
2024/02/16 02:05:47;;;;;;;31.73;15.13;;;-1.90;99.90;;;;;;4131457;28;20330;-59
2024/02/16 02:07:48;;;;;;;27.20;13.87;;;-1.90;99.90;;;;;;4129524;28;20316;-60
2024/02/16 02:09:50;;;;;;;28.73;14.37;;;-1.90;99.90;;;;;;4130800;28;20264;-64
2024/02/16 02:11:52;;;;;;;24.83;13.53;;;-1.90;99.90;;;;;;4130025;28;20318;-63
2024/02/16 02:13:53;;;;;;;28.17;12.93;;;-1.90;99.90;;;;;;4130302;28;20763;-65
2024/02/16 02:15:56;;;;;;;27.43;13.10;;;-1.90;99.90;;;;;;4130400;28;20292;-64
2024/02/16 02:18:00;;;;;;;27.30;13.13;;;-1.90;99.90;;;;;;4130275;28;20311;-59
2024/02/16 02:20:03;;;;;;;22.53;11.53;;;-1.90;99.90;;;;;;4130376;28;20260;-55
2024/02/16 02:22:18;;;;;;;21.83;11.47;;;-2.00;99.90;;;;;;4129518;28;20260;-63
2024/02/16 02:24:20;;;;;;;27.17;11.33;;;-1.90;99.90;;;;;;4130085;28;20283;-61
2024/02/16 02:26:22;;;;;;;27.17;12.87;;;-2.00;99.90;;;;;;4129821;28;20649;-63
2024/02/16 02:28:24;;;;;;;26.40;12.80;;;-2.00;99.90;;;;;;4130387;28;20260;-60
2024/02/16 02:30:25;;;;;;;27.10;12.00;;;-2.00;99.90;;;;;;4129836;28;20264;-64
2024/02/16 02:32:27;;;;;;;20.10;11.23;;;-2.10;99.90;;;;;;4130740;28;20318;-68
2024/02/16 02:34:28;;;;;;;22.60;11.63;;;-2.10;99.90;;;;;;4129857;28;20724;-59
2024/02/16 02:36:29;;;;;;;18.93;9.97;;;-2.10;99.90;;;;;;4130829;28;20264;-61
2024/02/16 02:38:30;;;;;;;25.77;12.80;;;-2.20;99.90;;;;;;4129485;28;20756;-64
2024/02/16 02:40:31;;;;;;;24.47;11.57;;;-2.20;99.90;;;;;;4130212;28;20283;-63
2024/02/16 02:42:33;;;;;;;21.53;11.27;;;-2.30;99.90;;;;;;4129394;28;20322;-60
2024/02/16 02:44:35;;;;;;;18.30;9.83;;;-2.30;99.90;;;;;;4129148;28;20276;-64
2024/02/16 02:46:37;;;;;;;19.80;10.67;;;-2.40;99.90;;;;;;4129592;28;20272;-61
2024/02/16 02:48:38;;;;;;;19.80;10.23;;;-2.40;99.90;;;;;;4129903;28;20327;-63
2024/02/16 02:50:39;;;;;;;17.30;9.13;;;-2.40;99.90;;;;;;4129656;28;20283;-60
2024/02/16 02:52:40;;;;;;;22.43;10.70;;;-2.50;99.90;;;;;;4129572;28;20326;-64
2024/02/16 02:54:41;;;;;;;33.67;12.10;;;-2.50;99.90;;;;;;4128712;28;20358;-57
2024/02/16 02:56:43;;;;;;;27.63;12.57;;;-2.60;99.90;;;;;;4129054;28;20826;-60
2024/02/16 02:58:44;;;;;;;24.67;11.67;;;-2.60;99.90;;;;;;4129545;28;20268;-56
2024/02/16 03:00:45;;;;;;;31.80;12.00;;;-2.70;99.90;;;;;;4128676;28;20318;-62
2024/02/16 03:02:48;;;;;;;22.27;11.80;;;-2.70;99.90;;;;;;4130097;28;20260;-61
2024/02/16 03:04:49;;;;;;;22.47;11.30;;;-2.80;99.90;;;;;;4129071;28;20264;-55
2024/02/16 03:06:53;;;;;;;28.67;13.17;;;-2.80;99.90;;;;;;4129730;28;20850;-60
2024/02/16 03:08:54;;;;;;;26.10;12.03;;;-2.90;99.90;;;;;;4128569;28;20267;-64
2024/02/16 03:10:55;;;;;;;27.40;13.27;;;-2.90;99.90;;;;;;4129952;28;20260;-61
2024/02/16 03:12:57;;;;;;;29.67;13.47;;;-2.90;99.90;;;;;;4129151;28;20303;-63
2024/02/16 03:14:58;;;;;;;30.23;13.73;;;-2.90;99.90;;;;;;4129827;28;20295;-62
2024/02/16 03:16:59;;;;;;;27.63;13.50;;;-2.90;99.90;;;;;;4128715;28;20272;-62
2024/02/16 03:19:00;;;;;;;30.90;14.10;;;-2.90;99.90;;;;;;4129646;28;20767;-60
2024/02/16 03:21:01;;;;;;;33.47;14.93;;;-2.90;99.90;;;;;;4127226;28;20276;-58
2024/02/16 03:23:03;;;;;;;32.03;14.73;;;-2.90;99.90;;;;;;4129095;28;20334;-58
2024/02/16 03:25:05;;;;;;;28.67;14.83;;;-2.90;99.90;;;;;;4128700;28;20664;-59
2024/02/16 03:27:06;;;;;;;29.47;15.27;;;-2.80;99.90;;;;;;4128950;28;20276;-63
2024/02/16 03:29:07;;;;;;;25.57;14.67;;;-2.80;99.90;;;;;;4129373;28;20676;-57
2024/02/16 03:31:18;;;;;;;31.60;15.47;;;-2.70;99.90;;;;;;4128678;28;20264;-56
2024/02/16 03:33:20;;;;;;;28.92;13.90;;;-2.70;99.90;;;;;;4129443;28;20284;-57
2024/02/16 03:35:22;;;;;;;33.67;15.13;;;-2.70;99.90;;;;;;4128427;28;20100;-56
2024/02/16 03:37:23;;;;;;;30.07;14.87;;;-2.70;99.90;;;;;;4129532;28;20286;-61
2024/02/16 03:39:24;;;;;;;29.17;14.43;;;-2.70;99.90;;;;;;4128230;28;20276;-63
2024/02/16 03:41:25;;;;;;;31.57;15.13;;;-2.70;99.90;;;;;;4129519;28;20276;-59
2024/02/16 03:43:26;;;;;;;29.80;14.37;;;-2.70;99.90;;;;;;4127919;28;20280;-64
2024/02/16 03:45:28;;;;;;;33.27;15.70;;;-2.60;99.90;;;;;;4129441;28;20318;-63
2024/02/16 03:47:29;;;;;;;26.80;14.10;;;-2.70;99.90;;;;;;4128515;28;20334;-63
2024/02/16 03:49:30;;;;;;;30.17;14.70;;;-2.70;99.90;;;;;;4128872;28;20280;-61
2024/02/16 03:51:31;;;;;;;26.07;13.03;;;-2.70;99.90;;;;;;4128308;28;20668;-64
2024/02/16 03:53:32;;;;;;;31.00;13.63;;;-2.70;99.90;;;;;;4128718;28;20426;-63
2024/02/16 03:55:36;;;;;;;24.47;12.43;;;-2.70;99.90;;;;;;4126982;28;20291;-65
2024/02/16 03:57:41;;;;;;;25.90;12.47;;;-2.70;99.90;;;;;;4128974;28;20280;-63
2024/02/16 03:59:46;;;;;;;26.53;14.07;;;-2.80;99.90;;;;;;4128190;28;20311;-64
2024/02/16 04:01:47;;;;;;;41.17;15.43;;;-2.80;99.90;;;;;;4128392;28;20276;-65
2024/02/16 04:03:48;;;;;;;28.93;14.27;;;-2.80;99.90;;;;;;4128682;28;20736;-64
2024/02/16 04:05:49;;;;;;;26.87;12.33;;;-2.80;99.90;;;;;;4128938;28;20283;-65
2024/02/16 04:07:51;;;;;;;19.23;9.83;;;-2.80;99.90;;;;;;4129236;28;20786;-65
2024/02/16 04:09:52;;;;;;;16.10;9.53;;;-2.80;99.90;;;;;;4127223;28;20764;-62
2024/02/16 04:11:53;;;;;;;17.83;9.90;;;-2.90;99.90;;;;;;4129020;28;20748;-64
2024/02/16 04:13:54;;;;;;;22.93;10.60;;;-2.90;99.90;;;;;;4128003;28;20276;-65
2024/02/16 04:15:55;;;;;;;23.90;11.50;;;-2.90;99.90;;;;;;4128563;28;20300;-63
2024/02/16 04:17:57;;;;;;;20.67;10.57;;;-3.00;99.90;;;;;;4127903;28;20832;-58
2024/02/16 04:19:58;;;;;;;22.40;10.63;;;-3.00;99.90;;;;;;4129152;28;20981;-60
2024/02/16 04:21:59;;;;;;;18.33;10.80;;;-3.20;99.90;;;;;;4127527;28;20334;-62
2024/02/16 04:24:00;;;;;;;26.13;12.50;;;-3.20;99.90;;;;;;4129305;28;20280;-60
2024/02/16 04:26:02;;;;;;;28.73;13.27;;;-3.30;99.90;;;;;;4127298;28;20292;-60
2024/02/16 04:28:03;;;;;;;24.63;11.90;;;-3.40;99.90;;;;;;4128980;28;20326;-58
2024/02/16 04:30:05;;;;;;;26.10;12.53;;;-3.50;99.90;;;;;;4127995;28;20249;-61
2024/02/16 04:32:06;;;;;;;26.67;12.60;;;-3.50;99.90;;;;;;4128076;28;20748;-56
2024/02/16 04:34:08;;;;;;;26.73;12.10;;;-3.50;99.90;;;;;;4128102;28;20268;-57
2024/02/16 04:36:10;;;;;;;27.47;13.97;;;-3.50;99.90;;;;;;4128024;28;20357;-65
2024/02/16 04:38:11;;;;;;;29.30;13.57;;;-3.60;99.90;;;;;;4128306;28;20264;-52
2024/02/16 04:40:12;;;;;;;39.30;15.40;;;-3.60;99.90;;;;;;4127642;28;20358;-62
2024/02/16 04:42:13;;;;;;;26.43;14.03;;;-3.60;99.90;;;;;;4128519;28;20268;-63
2024/02/16 04:44:14;;;;;;;28.37;13.60;;;-3.60;99.90;;;;;;4127527;28;20842;-59
2024/02/16 04:46:16;;;;;;;31.30;14.93;;;-3.60;99.90;;;;;;4128830;28;20268;-61
2024/02/16 04:48:19;;;;;;;34.93;14.43;;;-3.50;99.90;;;;;;4127817;28;20745;-60
2024/02/16 04:50:20;;;;;;;31.87;13.60;;;-3.50;99.90;;;;;;4128451;28;20256;-64
2024/02/16 04:52:22;;;;;;;32.00;15.07;;;-3.40;99.90;;;;;;4127211;28;20838;-65
2024/02/16 04:54:24;;;;;;;35.43;16.10;;;-3.50;99.90;;;;;;4128061;28;20319;-65
2024/02/16 04:56:25;;;;;;;36.63;17.43;;;-3.40;99.90;;;;;;4127242;28;20272;-65
2024/02/16 04:58:26;;;;;;;34.33;18.43;;;-3.50;99.90;;;;;;4129005;28;20318;-67
2024/02/16 05:00:28;;;;;;;35.80;16.30;;;-3.40;99.90;;;;;;4126958;28;20263;-63
2024/02/16 05:02:29;;;;;;;35.90;16.20;;;-3.50;99.90;;;;;;4127619;28;20338;-62
2024/02/16 05:04:30;;;;;;;34.63;14.23;;;-3.50;99.90;;;;;;4128456;28;20260;-65
2024/02/16 05:06:31;;;;;;;32.17;14.87;;;-3.50;99.90;;;;;;4127143;28;20276;-65
2024/02/16 05:08:32;;;;;;;36.10;15.37;;;-3.50;99.90;;;;;;4128259;28;20664;-57
2024/02/16 05:10:34;;;;;;;30.73;16.00;;;-3.60;99.90;;;;;;4126955;28;20272;-67
2024/02/16 05:12:35;;;;;;;29.43;14.13;;;-3.60;99.90;;;;;;4127255;28;20343;-59
2024/02/16 05:14:36;;;;;;;28.20;13.77;;;-3.70;99.90;;;;;;4126345;28;20338;-55
2024/02/16 05:16:42;;;;;;;32.60;14.97;;;-3.70;99.90;;;;;;4129084;28;20350;-60
2024/02/16 05:18:43;;;;;;;39.33;17.83;;;-3.70;99.90;;;;;;4127069;28;20276;-60
2024/02/16 05:20:44;;;;;;;37.17;18.77;;;-3.70;99.90;;;;;;4128194;28;20276;-66
2024/02/16 05:22:46;;;;;;;38.57;18.13;;;-3.70;99.90;;;;;;4127197;28;20350;-58
2024/02/16 05:24:47;;;;;;;37.30;18.83;;;-3.80;99.90;;;;;;4128213;28;20279;-56
2024/02/16 05:26:51;;;;;;;45.37;19.40;;;-3.70;99.90;;;;;;4127298;28;20275;-56
2024/02/16 05:28:52;;;;;;;39.50;18.17;;;-3.70;99.90;;;;;;4128547;28;20672;-69
2024/02/16 05:30:53;;;;;;;41.47;17.50;;;-3.70;99.90;;;;;;4127029;28;20268;-64
2024/02/16 05:32:58;;;;;;;39.57;18.60;;;-3.70;99.90;;;;;;4128258;28;20311;-63
2024/02/16 05:34:59;;;;;;;44.50;19.60;;;-3.60;99.90;;;;;;4127760;28;20311;-64
2024/02/16 05:37:01;;;;;;;38.47;17.97;;;-3.50;99.90;;;;;;4127910;28;20324;-65
2024/02/16 05:39:26;;;;;;;43.60;17.57;;;-3.40;99.90;;;;;;4130514;28;20680;-62
2024/02/16 05:41:27;;;;;;;35.60;18.17;;;-3.30;99.90;;;;;;4130566;28;20307;-62
2024/02/16 05:43:28;;;;;;;42.23;17.77;;;-3.20;99.90;;;;;;4130441;28;20405;-64
2024/02/16 05:45:30;;;;;;;40.90;19.10;;;-3.00;99.90;;;;;;4130159;28;20269;-65
2024/02/16 05:47:31;;;;;;;61.30;19.33;;;-2.80;99.90;;;;;;4130784;28;20244;-67
2024/02/16 05:49:32;;;;;;;41.53;18.57;;;-2.60;99.90;;;;;;4130183;28;20276;-69
2024/02/16 05:51:39;;;;;;;41.33;18.97;;;-2.40;99.90;;;;;;4131000;28;20276;-64
2024/02/16 05:53:40;;;;;;;42.30;20.60;;;-2.00;99.90;;;;;;4129497;28;20338;-59
2024/02/16 05:55:44;;;;;;;44.67;19.47;;;-1.80;99.90;;;;;;4131017;28;20296;-63
2024/02/16 05:57:45;;;;;;;98.13;29.00;;;-1.70;99.90;;;;;;4130001;28;20671;-64
2024/02/16 05:59:47;;;;;;;64.47;27.90;;;-1.30;99.90;;;;;;4130843;28;20338;-64
2024/02/16 06:01:48;;;;;;;63.43;24.63;;;-1.10;99.90;;;;;;4129261;28;20272;-61
2024/02/16 06:03:49;;;;;;;52.57;24.70;;;-0.60;99.90;;;;;;4130619;28;20307;-59
2024/02/16 06:05:51;;;;;;;49.33;22.40;;;-0.10;99.90;;;;;;4129355;28;20323;-66
2024/02/16 06:07:52;;;;;;;50.67;22.90;;;0.30;99.90;;;;;;4130982;28;20680;-66
2024/02/16 06:09:55;;;;;;;42.07;21.60;;;0.80;99.90;;;;;;4128679;28;20268;-61
2024/02/16 06:11:57;;;;;;;51.40;25.60;;;1.00;99.90;;;;;;4128884;28;20741;-66
2024/02/16 06:13:58;;;;;;;58.07;26.97;;;0.90;99.90;;;;;;4128980;28;20268;-63
2024/02/16 06:16:00;;;;;;;49.23;24.63;;;0.70;99.90;;;;;;4129840;28;20792;-62
2024/02/16 06:18:01;;;;;;;55.80;24.63;;;0.90;99.90;;;;;;4129940;28;20260;-64
2024/02/16 06:20:04;;;;;;;46.93;22.60;;;1.10;99.90;;;;;;4129437;28;20389;-63
2024/02/16 06:22:08;;;;;;;50.67;26.27;;;1.20;99.90;;;;;;4129864;28;20264;-67
2024/02/16 06:24:09;;;;;;;49.77;25.57;;;1.50;99.90;;;;;;4129106;28;20346;-67
2024/02/16 06:26:10;;;;;;;45.07;23.23;;;2.10;99.90;;;;;;4130330;28;20326;-66
2024/02/16 06:28:11;;;;;;;44.87;23.83;;;2.50;99.90;;;;;;4129398;28;20260;-62
2024/02/16 06:30:13;;;;;;;62.90;28.17;;;3.00;99.90;;;;;;4130321;28;20280;-65
2024/02/16 06:32:16;;;;;;;81.30;38.43;;;3.30;99.90;;;;;;4129001;28;20280;-65
2024/02/16 06:34:19;;;;;;;65.60;32.93;;;3.70;99.90;;;;;;4130630;28;20420;-60
2024/02/16 06:36:20;;;;;;;57.83;29.20;;;3.90;99.90;;;;;;4129260;28;20097;-68
2024/02/16 06:38:21;;;;;;;51.90;28.30;;;4.20;99.90;;;;;;4130650;28;20486;-67
2024/02/16 06:40:23;;;;;;;45.80;24.97;;;4.70;99.90;;;;;;4128418;28;20089;-58
2024/02/16 06:42:24;;;;;;;47.03;23.33;;;5.10;99.90;;;;;;4130471;28;20434;-62
2024/02/16 06:44:25;;;;;;;49.53;24.10;;;5.30;99.90;;;;;;4129491;28;20030;-66
2024/02/16 06:46:29;;;;;;;46.90;26.27;;;5.60;99.90;;;;;;4129721;28;20442;-67
2024/02/16 06:48:30;;;;;;;58.47;30.70;;;5.80;99.90;;;;;;4128522;28;20085;-60
2024/02/16 06:50:31;;;;;;;51.03;26.70;;;6.00;99.90;;;;;;4129619;28;20093;-55
2024/02/16 06:52:32;;;;;;;48.10;26.10;;;6.00;99.90;;;;;;4129606;28;20046;-67
2024/02/16 06:54:34;;;;;;;43.40;26.20;;;6.00;99.90;;;;;;4129134;28;20022;-67
2024/02/16 06:56:35;;;;;;;39.53;24.00;;;6.20;99.90;;;;;;4129397;28;20046;-64
2024/02/16 06:58:37;;;;;;;54.80;27.53;;;6.30;99.90;;;;;;4128961;28;20801;-67
2024/02/16 07:00:41;;;;;;;45.20;24.73;;;6.60;99.90;;;;;;4130266;28;20770;-63
2024/02/16 07:02:43;;;;;;;39.63;20.40;;;7.10;99.90;;;;;;4128834;28;20030;-61
2024/02/16 07:04:45;;;;;;;39.00;20.13;;;7.40;99.90;;;;;;4130376;28;20026;-68
2024/02/16 07:06:46;;;;;;;44.13;20.77;;;7.70;99.90;;;;;;4128373;28;20489;-66
2024/02/16 07:08:48;;;;;;;40.40;22.10;;;7.70;99.90;;;;;;4129949;28;20490;-69
2024/02/16 07:10:51;;;;;;;40.43;21.83;;;7.90;99.90;;;;;;4128653;28;20411;-60
2024/02/16 07:12:52;;;;;;;46.27;22.07;;;8.00;99.90;;;;;;4129966;28;20081;-61
2024/02/16 07:14:54;;;;;;;158.03;76.10;;;8.20;99.90;;;;;;4128736;28;20073;-61
2024/02/16 07:16:55;;;;;;;101.73;54.53;;;8.10;99.90;;;;;;4129654;28;20112;-60
2024/02/16 07:18:56;;;;;;;62.97;30.93;;;8.00;99.90;;;;;;4128343;28;20031;-65
2024/02/16 07:20:58;;;;;;;60.67;29.90;;;7.70;99.90;;;;;;4129340;28;20077;-66
2024/02/16 07:23:00;;;;;;;42.53;21.87;;;7.40;99.90;;;;;;4128973;28;20138;-65
2024/02/16 07:25:03;;;;;;;41.73;21.27;;;7.40;99.90;;;;;;4128675;28;20038;-68
2024/02/16 07:27:04;;;;;;;45.10;22.53;;;7.20;99.90;;;;;;4129205;28;20038;-64
2024/02/16 07:29:06;;;;;;;39.17;22.60;;;7.30;99.90;;;;;;4128787;28;20046;-64
2024/02/16 07:31:07;;;;;;;35.67;19.83;;;7.10;99.90;;;;;;4129766;28;20038;-64
2024/02/16 07:33:08;;;;;;;38.20;22.83;;;6.70;99.90;;;;;;4128818;28;20046;-61
2024/02/16 07:35:10;;;;;;;38.23;20.73;;;6.70;99.90;;;;;;4129490;28;21158;-68
2024/02/16 07:37:11;;;;;;;38.07;19.80;;;6.70;99.90;;;;;;4128548;28;21470;-64
2024/02/16 07:39:12;;;;;;;43.37;21.57;;;6.90;99.90;;;;;;4128945;28;20046;-64
2024/02/16 07:41:14;;;;;;;37.23;20.53;;;6.70;99.90;;;;;;4128458;28;20022;-68
2024/02/16 07:43:15;;;;;;;42.60;20.60;;;6.50;99.90;;;;;;4129421;28;20030;-63
2024/02/16 07:45:16;;;;;;;42.57;21.47;;;6.60;99.90;;;;;;4128022;28;20105;-65
2024/02/16 07:47:17;;;;;;;37.10;20.03;;;6.50;99.90;;;;;;4129382;28;20030;-61
2024/02/16 07:49:19;;;;;;;35.77;20.23;;;7.00;99.90;;;;;;4128300;28;20565;-65
2024/02/16 07:51:20;;;;;;;32.30;18.63;;;6.80;99.90;;;;;;4128823;28;20097;-62
2024/02/16 07:53:22;;;;;;;39.20;19.33;;;6.60;99.90;;;;;;4128132;28;20042;-66
2024/02/16 07:55:24;;;;;;;38.50;19.13;;;6.50;99.90;;;;;;4128445;28;20490;-58
2024/02/16 07:57:26;;;;;;;33.50;19.67;;;6.60;99.90;;;;;;4128906;28;20026;-61
2024/02/16 07:59:27;;;;;;;33.50;19.27;;;6.40;99.90;;;;;;4128482;28;20038;-62
2024/02/16 08:01:29;;;;;;;31.63;18.90;;;6.40;99.90;;;;;;4128283;28;20042;-62
2024/02/16 08:03:30;;;;;;;38.27;18.07;;;6.00;99.90;;;;;;4128059;28;20034;-59
2024/02/16 08:05:31;;;;;;;28.20;16.60;;;5.90;99.90;;;;;;4129710;28;20026;-67
2024/02/16 08:07:33;;;;;;;29.07;15.87;;;5.70;99.90;;;;;;4128038;28;20438;-59
2024/02/16 08:09:34;;;;;;;26.30;16.20;;;5.80;99.90;;;;;;4128406;28;20038;-54
2024/02/16 08:11:35;;;;;;;28.50;15.20;;;5.60;99.90;;;;;;4128110;28;20030;-61
2024/02/16 08:13:36;;;;;;;25.37;14.60;;;5.50;99.90;;;;;;4129070;28;20105;-57
2024/02/16 08:15:38;;;;;;;32.87;15.63;;;5.30;99.90;;;;;;4127947;28;20142;-58
2024/02/16 08:17:40;;;;;;;28.37;15.63;;;5.30;99.90;;;;;;4129410;28;20046;-57
2024/02/16 08:19:41;;;;;;;23.73;14.07;;;5.20;99.90;;;;;;4127942;28;20038;-61
2024/02/16 08:21:42;;;;;;;24.33;14.30;;;4.90;99.90;;;;;;4128709;28;20089;-58
2024/02/16 08:23:44;;;;;;;26.00;14.80;;;4.50;99.90;;;;;;4127703;28;20097;-61
2024/02/16 08:25:45;;;;;;;32.70;16.43;;;4.40;99.90;;;;;;4127750;28;20102;-59
2024/02/16 08:27:46;;;;;;;24.20;14.90;;;4.60;99.90;;;;;;4128327;28;20022;-59
2024/02/16 08:29:47;;;;;;;29.17;15.23;;;5.20;99.90;;;;;;4128091;28;20259;-62
2024/02/16 08:31:52;;;;;;;32.23;16.73;;;5.00;99.90;;;;;;4128577;28;20272;-64
2024/02/16 08:33:54;;;;;;;26.77;14.67;;;4.80;99.90;;;;;;4127945;28;20097;-59
2024/02/16 08:35:55;;;;;;;26.77;14.67;;;4.50;99.90;;;;;;4129127;28;20292;-65
2024/02/16 08:37:56;;;;;;;26.43;14.33;;;4.20;99.90;;;;;;4127931;28;20288;-63
2024/02/16 08:39:58;;;;;;;26.27;13.97;;;4.50;99.90;;;;;;4128682;28;20330;-64
2024/02/16 08:42:00;;;;;;;26.87;14.97;;;4.60;99.90;;;;;;4127787;28;20046;-64
2024/02/16 08:44:01;;;;;;;26.30;14.13;;;4.60;99.90;;;;;;4128923;28;20597;-58
2024/02/16 08:46:02;;;;;;;21.73;14.40;;;4.40;99.90;;;;;;4127575;28;20786;-59
2024/02/16 08:48:05;;;;;;;25.10;14.00;;;4.70;99.90;;;;;;4128510;28;20439;-61
2024/02/16 08:50:07;;;;;;;23.80;15.17;;;4.90;99.90;;;;;;4127390;28;20322;-61
2024/02/16 08:52:08;;;;;;;25.17;14.13;;;4.90;99.90;;;;;;4128894;28;20276;-59
2024/02/16 08:54:10;;;;;;;31.20;14.83;;;4.80;99.90;;;;;;4127422;28;20256;-59
2024/02/16 08:56:12;;;;;;;27.37;16.17;;;4.80;99.90;;;;;;4128484;28;20345;-63
2024/02/16 08:58:13;;;;;;;33.87;15.83;;;4.70;99.90;;;;;;4127583;28;20338;-59
2024/02/16 09:00:16;;;;;;;30.97;16.00;;;4.50;99.90;;;;;;4128213;28;20030;-61
2024/02/16 09:02:17;;;;;;;27.57;16.77;;;4.30;99.90;;;;;;4128697;28;20276;-65
2024/02/16 09:04:18;;;;;;;34.97;17.63;;;4.50;99.90;;;;;;4127184;28;20264;-64
2024/02/16 09:06:19;;;;;;;30.47;16.80;;;4.60;99.90;;;;;;4128838;28;20315;-63
2024/02/16 09:08:21;;;;;;;34.43;16.83;;;4.60;99.90;;;;;;4127509;28;20260;-64
2024/02/16 09:10:23;;;;;;;28.33;15.93;;;4.70;99.90;;;;;;4127950;28;20811;-60
2024/02/16 09:12:24;;;;;;;26.13;15.47;;;4.60;99.90;;;;;;4129295;28;20827;-59
2024/02/16 09:14:25;;;;;;;24.90;15.03;;;4.50;99.90;;;;;;4131451;28;20755;-58
2024/02/16 09:16:27;;;;;;;26.10;15.77;;;4.50;99.90;;;;;;4130664;28;20326;-61
2024/02/16 09:18:28;;;;;;;32.50;16.00;;;4.40;99.90;;;;;;4131540;28;20334;-61
2024/02/16 09:20:29;;;;;;;28.50;15.73;;;4.40;99.90;;;;;;4130436;28;20280;-62
2024/02/16 09:22:30;;;;;;;30.50;15.73;;;4.40;99.90;;;;;;4131140;28;20327;-61
2024/02/16 09:24:32;;;;;;;30.70;15.70;;;4.60;99.90;;;;;;4129638;28;20331;-59
2024/02/16 09:26:33;;;;;;;28.67;14.73;;;4.90;99.90;;;;;;4130871;28;20268;-57
2024/02/16 09:28:41;;;;;;;24.97;15.00;;;4.90;99.90;;;;;;4130460;28;20314;-60
2024/02/16 09:30:43;;;;;;;30.57;15.63;;;4.90;99.90;;;;;;4130493;28;20342;-60
2024/02/16 09:32:44;;;;;;;25.73;14.70;;;4.80;99.90;;;;;;4130492;28;20771;-61
2024/02/16 09:34:45;;;;;;;29.00;15.33;;;4.90;99.90;;;;;;4130720;28;20318;-60
2024/02/16 09:36:47;;;;;;;24.80;14.03;;;5.10;99.90;;;;;;4131256;28;20304;-62
2024/02/16 09:38:48;;;;;;;23.43;14.30;;;5.20;99.90;;;;;;4130377;28;20268;-61
2024/02/16 09:40:50;;;;;;;29.60;14.93;;;5.20;99.90;;;;;;4131502;28;20272;-61
2024/02/16 09:42:52;;;;;;;25.77;14.13;;;5.20;99.90;;;;;;4130057;28;20034;-60
2024/02/16 09:44:54;;;;;;;26.10;15.10;;;5.40;99.90;;;;;;4131319;28;20632;-58
2024/02/16 09:46:57;;;;;;;24.20;13.67;;;5.60;99.90;;;;;;4130213;28;20260;-62
2024/02/16 09:49:02;;;;;;;28.00;14.23;;;5.80;99.90;;;;;;4131092;28;20027;-59
2024/02/16 09:51:04;;;;;;;27.07;13.70;;;5.90;99.90;;;;;;4129633;28;20081;-57
2024/02/16 09:53:08;;;;;;;24.23;13.80;;;5.70;99.90;;;;;;4131338;28;20073;-57
2024/02/16 09:55:13;;;;;;;24.43;13.87;;;5.70;99.90;;;;;;4127987;28;20037;-63
2024/02/16 09:57:17;;;;;;;22.80;12.90;;;5.90;99.90;;;;;;4130693;28;20101;-61
2024/02/16 09:59:19;;;;;;;23.00;13.80;;;6.00;99.90;;;;;;4130012;28;20050;-61
2024/02/16 10:01:23;;;;;;;27.60;13.60;;;6.10;99.90;;;;;;4130771;28;20550;-61
2024/02/16 10:03:34;;;;;;;30.67;14.00;;;6.30;99.90;;;;;;4129602;28;20022;-61
2024/02/16 10:05:35;;;;;;;24.40;12.20;;;6.20;99.90;;;;;;4131104;28;20479;-65
2024/02/16 10:07:37;;;;;;;24.70;12.47;;;6.20;99.90;;;;;;4130207;28;20026;-61
2024/02/16 10:09:38;;;;;;;20.77;13.13;;;6.30;99.90;;;;;;4130231;28;20509;-62
2024/02/16 10:11:44;;;;;;;22.57;12.80;;;6.30;99.90;;;;;;4129866;28;20470;-62
2024/02/16 10:14:15;;;;;;;21.67;12.83;;;6.30;99.90;;;;;;4129846;28;20038;-59
2024/02/16 10:16:16;;;;;;;20.25;11.98;;;6.40;99.90;;;;;;4120063;28;20058;-64
2024/02/16 10:18:19;;;;;;;21.33;10.77;;;6.40;99.90;;;;;;4129557;28;20034;-65
2024/02/16 10:20:21;;;;;;;18.60;11.73;;;6.50;99.90;;;;;;4129808;28;20031;-63